sensor_id;sensor_type;location;lat;lon;timestamp;P1;durP1;ratioP1;P2;durP2;ratioP2
9108;SDS011;4590;51.462;6.692;2022-08-21T00:03:39;4.18;;;1.65;;
9108;SDS011;4590;51.462;6.692;2022-08-21T00:06:05;4.57;;;1.85;;
9108;SDS011;4590;51.462;6.692;2022-08-21T00:08:31;5.15;;;2.05;;
9108;SDS011;4590;51.462;6.692;2022-08-21T00:10:56;3.33;;;1.55;;
9108;SDS011;4590;51.462;6.692;2022-08-21T00:15:47;3.57;;;1.40;;
9108;SDS011;4590;51.462;6.692;2022-08-21T00:18:14;3.53;;;1.67;;
9108;SDS011;4590;51.462;6.692;2022-08-21T00:20:40;3.75;;;1.65;;
9108;SDS011;4590;51.462;6.692;2022-08-21T00:23:07;5.35;;;2.00;;
9108;SDS011;4590;51.462;6.692;2022-08-21T00:25:33;3.53;;;1.92;;
9108;SDS011;4590;51.462;6.692;2022-08-21T00:30:24;3.25;;;1.90;;
9108;SDS011;4590;51.462;6.692;2022-08-21T00:32:51;3.58;;;1.65;;
9108;SDS011;4590;51.462;6.692;2022-08-21T00:35:18;4.05;;;1.83;;
9108;SDS011;4590;51.462;6.692;2022-08-21T00:37:46;3.60;;;2.13;;
9108;SDS011;4590;51.462;6.692;2022-08-21T00:40:13;4.43;;;1.50;;
9108;SDS011;4590;51.462;6.692;2022-08-21T00:42:41;5.47;;;1.67;;
9108;SDS011;4590;51.462;6.692;2022-08-21T00:45:08;3.88;;;1.73;;
9108;SDS011;4590;51.462;6.692;2022-08-21T00:47:34;4.43;;;2.25;;
9108;SDS011;4590;51.462;6.692;2022-08-21T00:50:00;6.43;;;2.20;;
9108;SDS011;4590;51.462;6.692;2022-08-21T00:52:27;3.70;;;2.03;;
9108;SDS011;4590;51.462;6.692;2022-08-21T00:54:55;4.45;;;2.15;;
9108;SDS011;4590;51.462;6.692;2022-08-21T00:57:26;3.85;;;2.00;;
9108;SDS011;4590;51.462;6.692;2022-08-21T00:59:56;4.35;;;2.05;;
9108;SDS011;4590;51.462;6.692;2022-08-21T01:02:24;5.03;;;2.17;;
9108;SDS011;4590;51.462;6.692;2022-08-21T01:04:50;4.32;;;1.98;;
9108;SDS011;4590;51.462;6.692;2022-08-21T01:07:16;4.35;;;2.47;;
9108;SDS011;4590;51.462;6.692;2022-08-21T01:09:42;4.05;;;2.03;;
9108;SDS011;4590;51.462;6.692;2022-08-21T01:14:34;5.97;;;2.10;;
9108;SDS011;4590;51.462;6.692;2022-08-21T01:16:59;5.72;;;2.30;;
9108;SDS011;4590;51.462;6.692;2022-08-21T01:19:27;4.78;;;2.13;;
9108;SDS011;4590;51.462;6.692;2022-08-21T01:21:53;3.83;;;2.42;;
9108;SDS011;4590;51.462;6.692;2022-08-21T01:24:19;5.90;;;2.30;;
9108;SDS011;4590;51.462;6.692;2022-08-21T01:26:45;3.80;;;2.28;;
9108;SDS011;4590;51.462;6.692;2022-08-21T01:29:22;3.50;;;2.38;;
9108;SDS011;4590;51.462;6.692;2022-08-21T01:31:55;6.03;;;2.85;;
9108;SDS011;4590;51.462;6.692;2022-08-21T01:36:46;4.87;;;2.20;;
9108;SDS011;4590;51.462;6.692;2022-08-21T01:41:39;5.07;;;2.58;;
9108;SDS011;4590;51.462;6.692;2022-08-21T01:44:04;4.43;;;2.60;;
9108;SDS011;4590;51.462;6.692;2022-08-21T01:46:29;3.60;;;2.50;;
9108;SDS011;4590;51.462;6.692;2022-08-21T01:48:55;6.68;;;2.63;;
9108;SDS011;4590;51.462;6.692;2022-08-21T01:51:20;5.13;;;2.97;;
9108;SDS011;4590;51.462;6.692;2022-08-21T01:53:46;4.88;;;2.40;;
9108;SDS011;4590;51.462;6.692;2022-08-21T01:56:12;5.07;;;2.57;;
9108;SDS011;4590;51.462;6.692;2022-08-21T01:58:40;3.88;;;2.25;;
9108;SDS011;4590;51.462;6.692;2022-08-21T02:01:06;5.70;;;2.55;;
9108;SDS011;4590;51.462;6.692;2022-08-21T02:03:32;4.20;;;2.42;;
9108;SDS011;4590;51.462;6.692;2022-08-21T02:05:57;3.80;;;2.30;;
9108;SDS011;4590;51.462;6.692;2022-08-21T02:08:22;7.30;;;3.17;;
9108;SDS011;4590;51.462;6.692;2022-08-21T02:10:48;4.43;;;2.35;;
9108;SDS011;4590;51.462;6.692;2022-08-21T02:13:15;4.90;;;2.40;;
9108;SDS011;4590;51.462;6.692;2022-08-21T02:15:40;4.40;;;2.58;;
9108;SDS011;4590;51.462;6.692;2022-08-21T02:18:06;5.27;;;2.37;;
9108;SDS011;4590;51.462;6.692;2022-08-21T02:23:01;4.22;;;2.03;;
9108;SDS011;4590;51.462;6.692;2022-08-21T02:25:27;5.22;;;2.40;;
9108;SDS011;4590;51.462;6.692;2022-08-21T02:27:54;4.18;;;2.50;;
9108;SDS011;4590;51.462;6.692;2022-08-21T02:30:21;4.28;;;2.80;;
9108;SDS011;4590;51.462;6.692;2022-08-21T02:32:49;4.15;;;2.65;;
9108;SDS011;4590;51.462;6.692;2022-08-21T02:35:15;4.18;;;2.50;;
9108;SDS011;4590;51.462;6.692;2022-08-21T02:37:51;4.35;;;2.58;;
9108;SDS011;4590;51.462;6.692;2022-08-21T02:40:22;4.85;;;2.83;;
9108;SDS011;4590;51.462;6.692;2022-08-21T02:42:49;4.43;;;2.35;;
9108;SDS011;4590;51.462;6.692;2022-08-21T02:45:15;5.68;;;2.70;;
9108;SDS011;4590;51.462;6.692;2022-08-21T02:47:52;5.15;;;2.50;;
9108;SDS011;4590;51.462;6.692;2022-08-21T02:50:25;4.50;;;2.80;;
9108;SDS011;4590;51.462;6.692;2022-08-21T02:52:52;5.93;;;2.70;;
9108;SDS011;4590;51.462;6.692;2022-08-21T02:55:18;4.72;;;2.55;;
9108;SDS011;4590;51.462;6.692;2022-08-21T02:57:46;4.35;;;2.35;;
9108;SDS011;4590;51.462;6.692;2022-08-21T03:00:12;4.63;;;2.65;;
9108;SDS011;4590;51.462;6.692;2022-08-21T03:02:38;5.47;;;2.70;;
9108;SDS011;4590;51.462;6.692;2022-08-21T03:05:05;5.20;;;3.13;;
9108;SDS011;4590;51.462;6.692;2022-08-21T03:07:32;5.35;;;2.70;;
9108;SDS011;4590;51.462;6.692;2022-08-21T03:09:59;4.97;;;2.72;;
9108;SDS011;4590;51.462;6.692;2022-08-21T03:12:24;5.75;;;3.10;;
9108;SDS011;4590;51.462;6.692;2022-08-21T03:14:50;5.70;;;2.63;;
9108;SDS011;4590;51.462;6.692;2022-08-21T03:17:15;5.57;;;3.17;;
9108;SDS011;4590;51.462;6.692;2022-08-21T03:19:41;11.33;;;3.33;;
9108;SDS011;4590;51.462;6.692;2022-08-21T03:24:32;5.82;;;2.90;;
9108;SDS011;4590;51.462;6.692;2022-08-21T03:26:57;6.10;;;3.20;;
9108;SDS011;4590;51.462;6.692;2022-08-21T03:29:23;6.30;;;3.17;;
9108;SDS011;4590;51.462;6.692;2022-08-21T03:31:48;5.47;;;3.33;;
9108;SDS011;4590;51.462;6.692;2022-08-21T03:34:13;4.53;;;3.37;;
9108;SDS011;4590;51.462;6.692;2022-08-21T03:36:39;5.17;;;3.17;;
9108;SDS011;4590;51.462;6.692;2022-08-21T03:39:04;5.40;;;3.40;;
9108;SDS011;4590;51.462;6.692;2022-08-21T03:41:30;4.80;;;3.13;;
9108;SDS011;4590;51.462;6.692;2022-08-21T03:43:55;4.70;;;3.43;;
9108;SDS011;4590;51.462;6.692;2022-08-21T03:46:20;6.67;;;3.80;;
9108;SDS011;4590;51.462;6.692;2022-08-21T03:48:46;4.50;;;3.60;;
9108;SDS011;4590;51.462;6.692;2022-08-21T03:51:11;6.13;;;3.60;;
9108;SDS011;4590;51.462;6.692;2022-08-21T03:53:37;6.45;;;3.50;;
9108;SDS011;4590;51.462;6.692;2022-08-21T03:56:03;6.82;;;3.70;;
9108;SDS011;4590;51.462;6.692;2022-08-21T03:58:29;5.35;;;4.07;;
9108;SDS011;4590;51.462;6.692;2022-08-21T04:00:56;7.83;;;4.43;;
9108;SDS011;4590;51.462;6.692;2022-08-21T04:03:23;5.93;;;3.22;;
9108;SDS011;4590;51.462;6.692;2022-08-21T04:05:50;5.63;;;3.22;;
9108;SDS011;4590;51.462;6.692;2022-08-21T04:08:16;6.40;;;3.47;;
9108;SDS011;4590;51.462;6.692;2022-08-21T04:10:43;6.03;;;3.83;;
9108;SDS011;4590;51.462;6.692;2022-08-21T04:13:11;5.80;;;3.53;;
9108;SDS011;4590;51.462;6.692;2022-08-21T04:15:37;6.53;;;3.50;;
9108;SDS011;4590;51.462;6.692;2022-08-21T04:18:03;5.65;;;3.90;;
9108;SDS011;4590;51.462;6.692;2022-08-21T04:20:29;6.75;;;3.67;;
9108;SDS011;4590;51.462;6.692;2022-08-21T04:22:55;5.55;;;3.83;;
9108;SDS011;4590;51.462;6.692;2022-08-21T04:25:21;6.10;;;4.03;;
9108;SDS011;4590;51.462;6.692;2022-08-21T04:27:48;7.00;;;4.38;;
9108;SDS011;4590;51.462;6.692;2022-08-21T04:30:14;7.13;;;4.35;;
9108;SDS011;4590;51.462;6.692;2022-08-21T04:32:44;10.68;;;4.63;;
9108;SDS011;4590;51.462;6.692;2022-08-21T04:35:11;9.27;;;4.45;;
9108;SDS011;4590;51.462;6.692;2022-08-21T04:37:37;9.10;;;4.70;;
9108;SDS011;4590;51.462;6.692;2022-08-21T04:40:03;5.07;;;4.30;;
9108;SDS011;4590;51.462;6.692;2022-08-21T04:42:29;7.05;;;4.53;;
9108;SDS011;4590;51.462;6.692;2022-08-21T04:44:55;7.30;;;5.38;;
9108;SDS011;4590;51.462;6.692;2022-08-21T04:47:21;8.20;;;4.65;;
9108;SDS011;4590;51.462;6.692;2022-08-21T04:49:47;7.00;;;4.63;;
9108;SDS011;4590;51.462;6.692;2022-08-21T04:52:13;7.03;;;3.97;;
9108;SDS011;4590;51.462;6.692;2022-08-21T04:54:41;6.22;;;3.95;;
9108;SDS011;4590;51.462;6.692;2022-08-21T04:57:08;8.85;;;5.20;;
9108;SDS011;4590;51.462;6.692;2022-08-21T04:59:36;9.05;;;4.82;;
9108;SDS011;4590;51.462;6.692;2022-08-21T05:02:06;6.00;;;4.25;;
9108;SDS011;4590;51.462;6.692;2022-08-21T05:04:34;7.28;;;4.70;;
9108;SDS011;4590;51.462;6.692;2022-08-21T05:07:05;7.85;;;5.20;;
9108;SDS011;4590;51.462;6.692;2022-08-21T05:09:35;9.95;;;5.38;;
9108;SDS011;4590;51.462;6.692;2022-08-21T05:12:03;6.72;;;4.80;;
9108;SDS011;4590;51.462;6.692;2022-08-21T05:14:28;8.63;;;4.72;;
9108;SDS011;4590;51.462;6.692;2022-08-21T05:16:54;8.17;;;4.70;;
9108;SDS011;4590;51.462;6.692;2022-08-21T05:19:19;8.70;;;4.93;;
9108;SDS011;4590;51.462;6.692;2022-08-21T05:21:45;8.30;;;4.57;;
9108;SDS011;4590;51.462;6.692;2022-08-21T05:24:12;10.13;;;5.03;;
9108;SDS011;4590;51.462;6.692;2022-08-21T05:26:38;6.95;;;4.78;;
9108;SDS011;4590;51.462;6.692;2022-08-21T05:29:03;7.75;;;5.13;;
9108;SDS011;4590;51.462;6.692;2022-08-21T05:31:29;6.63;;;4.67;;
9108;SDS011;4590;51.462;6.692;2022-08-21T05:33:54;10.13;;;5.07;;
9108;SDS011;4590;51.462;6.692;2022-08-21T05:36:20;12.13;;;4.80;;
9108;SDS011;4590;51.462;6.692;2022-08-21T05:38:45;7.30;;;4.73;;
9108;SDS011;4590;51.462;6.692;2022-08-21T05:41:11;7.10;;;4.70;;
9108;SDS011;4590;51.462;6.692;2022-08-21T05:43:36;7.50;;;5.13;;
9108;SDS011;4590;51.462;6.692;2022-08-21T05:46:02;8.77;;;5.07;;
9108;SDS011;4590;51.462;6.692;2022-08-21T05:48:29;7.25;;;4.35;;
9108;SDS011;4590;51.462;6.692;2022-08-21T05:50:55;8.07;;;4.65;;
9108;SDS011;4590;51.462;6.692;2022-08-21T05:53:22;6.85;;;4.57;;
9108;SDS011;4590;51.462;6.692;2022-08-21T05:55:48;6.78;;;4.28;;
9108;SDS011;4590;51.462;6.692;2022-08-21T05:58:14;9.20;;;4.03;;
9108;SDS011;4590;51.462;6.692;2022-08-21T06:00:42;6.55;;;3.47;;
9108;SDS011;4590;51.462;6.692;2022-08-21T06:03:11;6.10;;;4.15;;
9108;SDS011;4590;51.462;6.692;2022-08-21T06:05:42;8.38;;;4.10;;
9108;SDS011;4590;51.462;6.692;2022-08-21T06:08:07;6.85;;;3.70;;
9108;SDS011;4590;51.462;6.692;2022-08-21T06:10:33;7.80;;;3.90;;
9108;SDS011;4590;51.462;6.692;2022-08-21T06:12:58;6.77;;;3.73;;
9108;SDS011;4590;51.462;6.692;2022-08-21T06:15:23;8.63;;;4.63;;
9108;SDS011;4590;51.462;6.692;2022-08-21T06:17:49;5.70;;;3.57;;
9108;SDS011;4590;51.462;6.692;2022-08-21T06:20:14;5.07;;;3.33;;
9108;SDS011;4590;51.462;6.692;2022-08-21T06:22:39;6.83;;;3.43;;
9108;SDS011;4590;51.462;6.692;2022-08-21T06:25:05;6.60;;;3.53;;
9108;SDS011;4590;51.462;6.692;2022-08-21T06:27:30;6.13;;;3.47;;
9108;SDS011;4590;51.462;6.692;2022-08-21T06:29:55;7.50;;;3.60;;
9108;SDS011;4590;51.462;6.692;2022-08-21T06:32:22;6.85;;;3.45;;
9108;SDS011;4590;51.462;6.692;2022-08-21T06:34:48;6.03;;;3.45;;
9108;SDS011;4590;51.462;6.692;2022-08-21T06:37:13;6.88;;;2.97;;
9108;SDS011;4590;51.462;6.692;2022-08-21T06:42:04;5.95;;;2.78;;
9108;SDS011;4590;51.462;6.692;2022-08-21T06:44:30;5.30;;;2.50;;
9108;SDS011;4590;51.462;6.692;2022-08-21T06:49:20;4.60;;;2.27;;
9108;SDS011;4590;51.462;6.692;2022-08-21T06:54:11;4.23;;;2.20;;
9108;SDS011;4590;51.462;6.692;2022-08-21T06:59:03;7.13;;;2.60;;
9108;SDS011;4590;51.462;6.692;2022-08-21T07:03:54;6.20;;;2.38;;
9108;SDS011;4590;51.462;6.692;2022-08-21T07:08:44;4.73;;;1.87;;
9108;SDS011;4590;51.462;6.692;2022-08-21T07:11:14;3.88;;;1.83;;
9108;SDS011;4590;51.462;6.692;2022-08-21T07:13:43;5.70;;;1.90;;
9108;SDS011;4590;51.462;6.692;2022-08-21T07:16:09;5.53;;;1.80;;
9108;SDS011;4590;51.462;6.692;2022-08-21T07:18:34;3.50;;;1.85;;
9108;SDS011;4590;51.462;6.692;2022-08-21T07:21:03;5.35;;;2.00;;
9108;SDS011;4590;51.462;6.692;2022-08-21T07:23:31;4.22;;;1.80;;
9108;SDS011;4590;51.462;6.692;2022-08-21T07:25:58;7.13;;;1.77;;
9108;SDS011;4590;51.462;6.692;2022-08-21T07:28:27;3.25;;;1.60;;
9108;SDS011;4590;51.462;6.692;2022-08-21T07:30:54;4.00;;;1.50;;
9108;SDS011;4590;51.462;6.692;2022-08-21T07:33:21;3.65;;;1.17;;
9108;SDS011;4590;51.462;6.692;2022-08-21T07:35:47;3.83;;;1.45;;
9108;SDS011;4590;51.462;6.692;2022-08-21T07:38:12;3.47;;;1.13;;
9108;SDS011;4590;51.462;6.692;2022-08-21T07:40:37;4.22;;;1.23;;
9108;SDS011;4590;51.462;6.692;2022-08-21T07:43:03;3.15;;;1.17;;
9108;SDS011;4590;51.462;6.692;2022-08-21T07:45:29;3.60;;;1.25;;
9108;SDS011;4590;51.462;6.692;2022-08-21T07:47:54;3.28;;;1.10;;
9108;SDS011;4590;51.462;6.692;2022-08-21T07:50:21;4.15;;;1.38;;
9108;SDS011;4590;51.462;6.692;2022-08-21T07:52:47;5.00;;;1.33;;
9108;SDS011;4590;51.462;6.692;2022-08-21T07:55:13;3.65;;;1.10;;
9108;SDS011;4590;51.462;6.692;2022-08-21T07:57:41;5.72;;;1.67;;
9108;SDS011;4590;51.462;6.692;2022-08-21T08:00:07;3.92;;;1.23;;
9108;SDS011;4590;51.462;6.692;2022-08-21T08:02:36;3.92;;;1.40;;
9108;SDS011;4590;51.462;6.692;2022-08-21T08:05:06;3.80;;;0.95;;
9108;SDS011;4590;51.462;6.692;2022-08-21T08:07:34;4.55;;;1.00;;
9108;SDS011;4590;51.462;6.692;2022-08-21T08:10:00;3.03;;;0.93;;
9108;SDS011;4590;51.462;6.692;2022-08-21T08:12:25;2.50;;;0.80;;
9108;SDS011;4590;51.462;6.692;2022-08-21T08:14:55;3.72;;;0.95;;
9108;SDS011;4590;51.462;6.692;2022-08-21T08:17:21;4.45;;;0.95;;
9108;SDS011;4590;51.462;6.692;2022-08-21T08:19:48;3.17;;;0.90;;
9108;SDS011;4590;51.462;6.692;2022-08-21T08:22:14;2.08;;;0.77;;
9108;SDS011;4590;51.462;6.692;2022-08-21T08:24:41;1.75;;;0.73;;
9108;SDS011;4590;51.462;6.692;2022-08-21T08:27:07;3.63;;;0.90;;
9108;SDS011;4590;51.462;6.692;2022-08-21T08:29:32;2.25;;;0.90;;
9108;SDS011;4590;51.462;6.692;2022-08-21T08:31:57;3.63;;;0.93;;
9108;SDS011;4590;51.462;6.692;2022-08-21T08:34:23;3.22;;;0.82;;
9108;SDS011;4590;51.462;6.692;2022-08-21T08:36:48;3.78;;;1.00;;
9108;SDS011;4590;51.462;6.692;2022-08-21T08:39:13;1.95;;;0.95;;
9108;SDS011;4590;51.462;6.692;2022-08-21T08:41:38;3.95;;;0.95;;
9108;SDS011;4590;51.462;6.692;2022-08-21T08:44:06;3.00;;;0.82;;
9108;SDS011;4590;51.462;6.692;2022-08-21T08:46:36;4.88;;;0.95;;
9108;SDS011;4590;51.462;6.692;2022-08-21T08:49:06;2.92;;;0.80;;
9108;SDS011;4590;51.462;6.692;2022-08-21T08:54:21;3.35;;;0.85;;
9108;SDS011;4590;51.462;6.692;2022-08-21T08:56:56;3.20;;;0.60;;
9108;SDS011;4590;51.462;6.692;2022-08-21T08:59:27;3.78;;;0.80;;
9108;SDS011;4590;51.462;6.692;2022-08-21T09:02:03;2.15;;;0.60;;
9108;SDS011;4590;51.462;6.692;2022-08-21T09:04:29;2.42;;;0.70;;
9108;SDS011;4590;51.462;6.692;2022-08-21T09:12:30;1.95;;;0.80;;
9108;SDS011;4590;51.462;6.692;2022-08-21T09:18:10;3.67;;;0.85;;
9108;SDS011;4590;51.462;6.692;2022-08-21T09:20:56;3.22;;;0.90;;
9108;SDS011;4590;51.462;6.692;2022-08-21T09:23:49;4.20;;;0.85;;
9108;SDS011;4590;51.462;6.692;2022-08-21T09:26:22;3.10;;;0.73;;
9108;SDS011;4590;51.462;6.692;2022-08-21T09:28:51;3.90;;;0.70;;
9108;SDS011;4590;51.462;6.692;2022-08-21T09:31:28;2.40;;;0.70;;
9108;SDS011;4590;51.462;6.692;2022-08-21T09:36:28;2.38;;;0.80;;
9108;SDS011;4590;51.462;6.692;2022-08-21T09:38:59;2.17;;;0.70;;
9108;SDS011;4590;51.462;6.692;2022-08-21T09:41:28;2.05;;;0.88;;
9108;SDS011;4590;51.462;6.692;2022-08-21T09:43:56;3.38;;;0.82;;
9108;SDS011;4590;51.462;6.692;2022-08-21T09:46:23;2.35;;;0.85;;
9108;SDS011;4590;51.462;6.692;2022-08-21T09:48:51;1.85;;;0.70;;
9108;SDS011;4590;51.462;6.692;2022-08-21T09:56:54;3.17;;;1.00;;
9108;SDS011;4590;51.462;6.692;2022-08-21T09:59:36;4.10;;;0.80;;
9108;SDS011;4590;51.462;6.692;2022-08-21T10:04:50;2.58;;;0.70;;
9108;SDS011;4590;51.462;6.692;2022-08-21T10:07:21;3.05;;;1.00;;
9108;SDS011;4590;51.462;6.692;2022-08-21T10:10:03;4.60;;;0.80;;
9108;SDS011;4590;51.462;6.692;2022-08-21T10:21:32;2.10;;;0.80;;
9108;SDS011;4590;51.462;6.692;2022-08-21T10:24:24;2.72;;;0.90;;
9108;SDS011;4590;51.462;6.692;2022-08-21T10:29:52;2.42;;;0.60;;
9108;SDS011;4590;51.462;6.692;2022-08-21T10:32:37;3.10;;;0.90;;
9108;SDS011;4590;51.462;6.692;2022-08-21T10:37:52;2.38;;;0.80;;
9108;SDS011;4590;51.462;6.692;2022-08-21T10:43:18;2.20;;;0.60;;
9108;SDS011;4590;51.462;6.692;2022-08-21T10:48:32;2.65;;;0.63;;
9108;SDS011;4590;51.462;6.692;2022-08-21T10:56:25;2.45;;;0.50;;
9108;SDS011;4590;51.462;6.692;2022-08-21T11:01:53;2.42;;;0.70;;
9108;SDS011;4590;51.462;6.692;2022-08-21T11:04:33;2.42;;;0.60;;
9108;SDS011;4590;51.462;6.692;2022-08-21T11:07:10;1.42;;;0.57;;
9108;SDS011;4590;51.462;6.692;2022-08-21T11:09:56;1.27;;;0.40;;
9108;SDS011;4590;51.462;6.692;2022-08-21T11:12:42;1.25;;;0.40;;
9108;SDS011;4590;51.462;6.692;2022-08-21T11:15:16;1.75;;;0.55;;
9108;SDS011;4590;51.462;6.692;2022-08-21T11:17:49;1.45;;;0.50;;
9108;SDS011;4590;51.462;6.692;2022-08-21T11:20:34;2.20;;;0.40;;
9108;SDS011;4590;51.462;6.692;2022-08-21T11:23:13;9.30;;;0.80;;
9108;SDS011;4590;51.462;6.692;2022-08-21T11:25:44;2.10;;;0.70;;
9108;SDS011;4590;51.462;6.692;2022-08-21T11:33:55;2.43;;;0.70;;
9108;SDS011;4590;51.462;6.692;2022-08-21T11:39:01;4.05;;;0.80;;
9108;SDS011;4590;51.462;6.692;2022-08-21T11:41:43;2.45;;;0.43;;
9108;SDS011;4590;51.462;6.692;2022-08-21T11:47:25;2.05;;;0.60;;
9108;SDS011;4590;51.462;6.692;2022-08-21T11:50:17;2.47;;;0.70;;
9108;SDS011;4590;51.462;6.692;2022-08-21T11:53:39;3.25;;;0.80;;
9108;SDS011;4590;51.462;6.692;2022-08-21T11:55:55;2.95;;;0.80;;
9108;SDS011;4590;51.462;6.692;2022-08-21T11:58:24;1.38;;;0.60;;
9108;SDS011;4590;51.462;6.692;2022-08-21T12:00:57;2.33;;;0.50;;
9108;SDS011;4590;51.462;6.692;2022-08-21T12:03:30;6.38;;;2.40;;
9108;SDS011;4590;51.462;6.692;2022-08-21T12:05:58;2.78;;;1.30;;
9108;SDS011;4590;51.462;6.692;2022-08-21T12:08:33;3.42;;;1.17;;
9108;SDS011;4590;51.462;6.692;2022-08-21T12:16:34;2.15;;;0.60;;
9108;SDS011;4590;51.462;6.692;2022-08-21T12:19:04;2.95;;;0.65;;
9108;SDS011;4590;51.462;6.692;2022-08-21T12:26:53;2.13;;;0.40;;
9108;SDS011;4590;51.462;6.692;2022-08-21T12:29:21;2.80;;;0.50;;
9108;SDS011;4590;51.462;6.692;2022-08-21T12:31:57;2.22;;;0.60;;
9108;SDS011;4590;51.462;6.692;2022-08-21T12:34:23;3.30;;;0.77;;
9108;SDS011;4590;51.462;6.692;2022-08-21T12:37:40;2.55;;;0.40;;
9108;SDS011;4590;51.462;6.692;2022-08-21T12:39:43;2.15;;;0.47;;
9108;SDS011;4590;51.462;6.692;2022-08-21T12:42:15;1.98;;;0.60;;
9108;SDS011;4590;51.462;6.692;2022-08-21T12:47:48;1.73;;;0.52;;
9108;SDS011;4590;51.462;6.692;2022-08-21T12:50:31;1.88;;;0.50;;
9108;SDS011;4590;51.462;6.692;2022-08-21T12:53:10;1.27;;;0.55;;
9108;SDS011;4590;51.462;6.692;2022-08-21T12:55:46;2.28;;;0.70;;
9108;SDS011;4590;51.462;6.692;2022-08-21T12:58:19;2.15;;;0.75;;
9108;SDS011;4590;51.462;6.692;2022-08-21T13:00:50;1.80;;;0.60;;
9108;SDS011;4590;51.462;6.692;2022-08-21T13:03:19;1.33;;;0.50;;
9108;SDS011;4590;51.462;6.692;2022-08-21T13:05:46;1.35;;;0.50;;
9108;SDS011;4590;51.462;6.692;2022-08-21T13:08:12;1.75;;;0.50;;
9108;SDS011;4590;51.462;6.692;2022-08-21T13:10:39;1.95;;;0.43;;
9108;SDS011;4590;51.462;6.692;2022-08-21T13:13:17;1.90;;;0.50;;
9108;SDS011;4590;51.462;6.692;2022-08-21T13:15:46;2.67;;;0.70;;
9108;SDS011;4590;51.462;6.692;2022-08-21T13:18:19;2.67;;;0.70;;
9108;SDS011;4590;51.462;6.692;2022-08-21T13:20:47;2.20;;;0.55;;
9108;SDS011;4590;51.462;6.692;2022-08-21T13:23:29;1.23;;;0.50;;
9108;SDS011;4590;51.462;6.692;2022-08-21T13:25:55;2.33;;;0.80;;
9108;SDS011;4590;51.462;6.692;2022-08-21T13:28:21;2.92;;;0.70;;
9108;SDS011;4590;51.462;6.692;2022-08-21T13:30:48;1.67;;;0.63;;
9108;SDS011;4590;51.462;6.692;2022-08-21T13:33:16;1.50;;;0.55;;
9108;SDS011;4590;51.462;6.692;2022-08-21T13:35:51;1.95;;;0.52;;
9108;SDS011;4590;51.462;6.692;2022-08-21T13:38:31;2.08;;;0.68;;
9108;SDS011;4590;51.462;6.692;2022-08-21T13:43:43;1.58;;;0.50;;
9108;SDS011;4590;51.462;6.692;2022-08-21T13:46:12;1.98;;;0.80;;
9108;SDS011;4590;51.462;6.692;2022-08-21T13:48:39;1.73;;;0.52;;
9108;SDS011;4590;51.462;6.692;2022-08-21T13:51:05;2.83;;;0.60;;
9108;SDS011;4590;51.462;6.692;2022-08-21T13:53:33;2.80;;;0.70;;
9108;SDS011;4590;51.462;6.692;2022-08-21T13:56:00;1.92;;;0.63;;
9108;SDS011;4590;51.462;6.692;2022-08-21T13:58:28;2.63;;;0.55;;
9108;SDS011;4590;51.462;6.692;2022-08-21T14:01:15;2.42;;;0.68;;
9108;SDS011;4590;51.462;6.692;2022-08-21T14:03:45;3.38;;;0.80;;
9108;SDS011;4590;51.462;6.692;2022-08-21T14:06:15;3.72;;;0.80;;
9108;SDS011;4590;51.462;6.692;2022-08-21T14:08:46;2.95;;;0.80;;
9108;SDS011;4590;51.462;6.692;2022-08-21T14:11:24;2.15;;;0.60;;
9108;SDS011;4590;51.462;6.692;2022-08-21T14:16:21;5.10;;;1.00;;
9108;SDS011;4590;51.462;6.692;2022-08-21T14:19:07;3.00;;;0.75;;
9108;SDS011;4590;51.462;6.692;2022-08-21T14:21:44;2.83;;;0.90;;
9108;SDS011;4590;51.462;6.692;2022-08-21T14:27:00;2.75;;;0.55;;
9108;SDS011;4590;51.462;6.692;2022-08-21T14:29:28;5.88;;;0.70;;
9108;SDS011;4590;51.462;6.692;2022-08-21T14:32:14;3.50;;;1.13;;
9108;SDS011;4590;51.462;6.692;2022-08-21T14:34:44;8.60;;;1.27;;
9108;SDS011;4590;51.462;6.692;2022-08-21T14:37:09;3.58;;;0.90;;
9108;SDS011;4590;51.462;6.692;2022-08-21T14:39:34;3.22;;;1.00;;
9108;SDS011;4590;51.462;6.692;2022-08-21T14:42:00;2.38;;;0.73;;
9108;SDS011;4590;51.462;6.692;2022-08-21T14:44:26;3.67;;;1.25;;
9108;SDS011;4590;51.462;6.692;2022-08-21T14:46:52;3.50;;;0.77;;
9108;SDS011;4590;51.462;6.692;2022-08-21T14:49:18;3.03;;;0.85;;
9108;SDS011;4590;51.462;6.692;2022-08-21T14:51:43;1.75;;;0.70;;
9108;SDS011;4590;51.462;6.692;2022-08-21T14:54:08;3.70;;;0.80;;
9108;SDS011;4590;51.462;6.692;2022-08-21T14:56:34;2.50;;;0.65;;
9108;SDS011;4590;51.462;6.692;2022-08-21T14:59:02;4.63;;;0.93;;
9108;SDS011;4590;51.462;6.692;2022-08-21T15:01:43;5.00;;;0.80;;
9108;SDS011;4590;51.462;6.692;2022-08-21T15:04:09;2.08;;;0.73;;
9108;SDS011;4590;51.462;6.692;2022-08-21T15:06:34;2.78;;;0.80;;
9108;SDS011;4590;51.462;6.692;2022-08-21T15:08:59;1.67;;;0.60;;
9108;SDS011;4590;51.462;6.692;2022-08-21T15:11:27;2.33;;;1.60;;
9108;SDS011;4590;51.462;6.692;2022-08-21T15:13:55;2.33;;;1.02;;
9108;SDS011;4590;51.462;6.692;2022-08-21T15:16:23;2.67;;;1.05;;
9108;SDS011;4590;51.462;6.692;2022-08-21T15:18:49;4.00;;;2.00;;
9108;SDS011;4590;51.462;6.692;2022-08-21T15:21:14;4.43;;;3.05;;
9108;SDS011;4590;51.462;6.692;2022-08-21T15:23:40;4.97;;;3.38;;
9108;SDS011;4590;51.462;6.692;2022-08-21T15:26:05;4.00;;;1.60;;
9108;SDS011;4590;51.462;6.692;2022-08-21T15:28:30;3.22;;;1.30;;
9108;SDS011;4590;51.462;6.692;2022-08-21T15:30:56;4.43;;;1.40;;
9108;SDS011;4590;51.462;6.692;2022-08-21T15:33:21;3.58;;;1.77;;
9108;SDS011;4590;51.462;6.692;2022-08-21T15:35:46;2.42;;;1.25;;
9108;SDS011;4590;51.462;6.692;2022-08-21T15:38:13;5.30;;;1.30;;
9108;SDS011;4590;51.462;6.692;2022-08-21T15:40:40;2.25;;;1.05;;
9108;SDS011;4590;51.462;6.692;2022-08-21T15:43:07;3.00;;;0.95;;
9108;SDS011;4590;51.462;6.692;2022-08-21T15:45:41;2.88;;;1.20;;
9108;SDS011;4590;51.462;6.692;2022-08-21T15:48:06;4.15;;;1.00;;
9108;SDS011;4590;51.462;6.692;2022-08-21T15:50:31;5.22;;;0.80;;
9108;SDS011;4590;51.462;6.692;2022-08-21T15:52:57;2.13;;;0.80;;
9108;SDS011;4590;51.462;6.692;2022-08-21T15:55:22;3.75;;;1.20;;
9108;SDS011;4590;51.462;6.692;2022-08-21T15:57:48;4.95;;;1.90;;
9108;SDS011;4590;51.462;6.692;2022-08-21T16:00:17;4.22;;;2.08;;
9108;SDS011;4590;51.462;6.692;2022-08-21T16:02:46;9.13;;;6.53;;
9108;SDS011;4590;51.462;6.692;2022-08-21T16:05:13;9.75;;;4.70;;
9108;SDS011;4590;51.462;6.692;2022-08-21T16:07:41;4.10;;;2.20;;
9108;SDS011;4590;51.462;6.692;2022-08-21T16:10:07;5.88;;;2.83;;
9108;SDS011;4590;51.462;6.692;2022-08-21T16:12:34;7.97;;;2.60;;
9108;SDS011;4590;51.462;6.692;2022-08-21T16:15:03;5.00;;;2.35;;
9108;SDS011;4590;51.462;6.692;2022-08-21T16:17:33;5.85;;;1.85;;
9108;SDS011;4590;51.462;6.692;2022-08-21T16:20:01;3.72;;;1.08;;
9108;SDS011;4590;51.462;6.692;2022-08-21T16:22:31;3.10;;;1.08;;
9108;SDS011;4590;51.462;6.692;2022-08-21T16:24:57;11.63;;;3.78;;
9108;SDS011;4590;51.462;6.692;2022-08-21T16:27:22;3.95;;;1.63;;
9108;SDS011;4590;51.462;6.692;2022-08-21T16:29:48;11.63;;;2.63;;
9108;SDS011;4590;51.462;6.692;2022-08-21T16:32:14;2.45;;;1.20;;
9108;SDS011;4590;51.462;6.692;2022-08-21T16:34:41;3.42;;;1.00;;
9108;SDS011;4590;51.462;6.692;2022-08-21T16:37:09;4.90;;;1.20;;
9108;SDS011;4590;51.462;6.692;2022-08-21T16:39:35;2.55;;;1.25;;
9108;SDS011;4590;51.462;6.692;2022-08-21T16:42:00;3.25;;;0.80;;
9108;SDS011;4590;51.462;6.692;2022-08-21T16:44:26;1.92;;;0.80;;
9108;SDS011;4590;51.462;6.692;2022-08-21T16:46:51;3.53;;;1.08;;
9108;SDS011;4590;51.462;6.692;2022-08-21T16:49:17;2.17;;;0.85;;
9108;SDS011;4590;51.462;6.692;2022-08-21T16:51:42;2.67;;;0.98;;
9108;SDS011;4590;51.462;6.692;2022-08-21T16:54:08;3.28;;;0.80;;
9108;SDS011;4590;51.462;6.692;2022-08-21T16:56:34;2.65;;;0.90;;
9108;SDS011;4590;51.462;6.692;2022-08-21T16:59:01;3.60;;;0.85;;
9108;SDS011;4590;51.462;6.692;2022-08-21T17:01:28;2.80;;;1.00;;
9108;SDS011;4590;51.462;6.692;2022-08-21T17:03:55;2.88;;;1.10;;
9108;SDS011;4590;51.462;6.692;2022-08-21T17:06:21;1.88;;;0.80;;
9108;SDS011;4590;51.462;6.692;2022-08-21T17:08:47;1.73;;;0.70;;
9108;SDS011;4590;51.462;6.692;2022-08-21T17:13:47;2.22;;;0.88;;
9108;SDS011;4590;51.462;6.692;2022-08-21T17:16:12;2.30;;;0.85;;
9108;SDS011;4590;51.462;6.692;2022-08-21T17:18:39;2.63;;;1.05;;
9108;SDS011;4590;51.462;6.692;2022-08-21T17:21:04;4.80;;;1.00;;
9108;SDS011;4590;51.462;6.692;2022-08-21T17:23:29;1.85;;;0.85;;